createdAt,value
2019-01-08T00:00:24.513Z,98861.59
2019-01-08T00:02:02.020Z,98845.09
2019-01-08T00:03:37.671Z,98855.80
2019-01-08T00:05:13.319Z,98841.48
2019-01-08T00:06:48.813Z,98840.13
2019-01-08T00:08:25.570Z,98827.19
2019-01-08T00:10:01.848Z,98832.47
2019-01-08T00:11:37.734Z,98819.31
2019-01-08T00:13:14.054Z,98819.31
2019-01-08T00:14:49.648Z,98799.16
2019-01-08T00:16:25.189Z,98811.02
2019-01-08T00:18:06.151Z,98809.09
2019-01-08T00:19:53.340Z,98807.52
2019-01-08T00:21:28.630Z,98807.16
2019-01-08T00:23:07.732Z,98791.25
2019-01-08T00:24:45.226Z,98800.19
2019-01-08T00:26:20.891Z,98798.83
2019-01-08T00:27:56.484Z,98796.11
2019-01-08T00:29:33.517Z,98793.40
2019-01-08T00:31:10.846Z,98795.54
2019-01-08T00:32:49.608Z,98786.88
2019-01-08T00:34:25.108Z,98802.60
2019-01-08T00:36:00.443Z,98802.03
2019-01-08T00:37:37.033Z,98813.47
2019-01-08T00:39:12.449Z,98806.25
2019-01-08T00:40:48.773Z,98799.61
2019-01-08T00:42:24.047Z,98806.16
2019-01-08T00:43:59.725Z,98806.16
2019-01-08T00:45:38.759Z,98799.73
2019-01-08T00:47:14.217Z,98805.73
2019-01-08T00:48:50.810Z,98784.02
2019-01-08T00:50:34.020Z,98787.66
2019-01-08T00:52:09.238Z,98779.09
2019-01-08T00:53:44.630Z,98785.52
2019-01-08T00:55:20.214Z,98775.02
2019-01-08T00:56:55.520Z,98782.45
2019-01-08T00:58:30.964Z,98778.16
2019-01-08T01:00:09.572Z,98765.30
2019-01-08T01:01:47.805Z,98756.38
2019-01-08T01:03:23.574Z,98747.09
2019-01-08T01:04:59.037Z,98742.38
2019-01-08T01:06:34.583Z,98750.16
2019-01-08T01:08:10.321Z,98752.67
2019-01-08T01:09:45.670Z,98748.59
2019-01-08T01:11:21.178Z,98744.64
2019-01-08T01:12:56.353Z,98744.22
2019-01-08T01:14:31.673Z,98746.72
2019-01-08T01:16:07.018Z,98743.02
2019-01-08T01:17:42.207Z,98743.80
2019-01-08T01:19:17.883Z,98747.23
2019-01-08T01:20:53.691Z,98748.77
2019-01-08T01:22:28.998Z,98736.28
2019-01-08T01:24:04.295Z,98716.05
2019-01-08T01:25:39.975Z,98717.58
2019-01-08T01:27:15.649Z,98707.69
2019-01-08T01:28:59.749Z,98695.78
2019-01-08T01:30:28.383Z,98675.73
2019-01-08T01:32:04.608Z,98663.70
2019-01-08T01:33:40.091Z,98657.86
2019-01-08T01:35:15.486Z,98652.80
2019-01-08T01:36:50.684Z,98650.44
2019-01-08T01:38:25.858Z,98638.59
2019-01-08T01:40:01.616Z,98623.89
2019-01-08T01:41:37.186Z,98626.60
2019-01-08T01:43:15.674Z,98605.69
2019-01-08T01:44:52.705Z,98608.97
2019-01-08T01:46:28.486Z,98595.20
2019-01-08T01:48:06.341Z,98589.35
2019-01-08T01:49:41.924Z,98569.58
2019-01-08T01:51:17.399Z,98559.09
2019-01-08T01:52:52.596Z,98547.66
2019-01-08T01:54:27.791Z,98546.03
2019-01-08T01:56:04.580Z,98546.18
2019-01-08T01:57:42.265Z,98531.27
2019-01-08T01:59:17.451Z,98526.41
2019-01-08T02:00:52.707Z,98519.06
2019-01-08T02:02:28.343Z,98516.33
2019-01-08T02:04:04.198Z,98503.52
2019-01-08T02:05:39.375Z,98501.98
2019-01-08T02:07:14.556Z,98494.22
2019-01-08T02:08:49.833Z,98484.73
2019-01-08T02:10:25.406Z,98484.87
2019-01-08T02:12:00.853Z,98466.63
2019-01-08T02:13:36.049Z,98465.06
2019-01-08T02:15:12.704Z,98449.73
2019-01-08T02:16:47.987Z,98443.14
2019-01-08T02:18:23.247Z,98437.30
2019-01-08T02:19:58.758Z,98430.31
2019-01-08T02:21:34.264Z,98434.59
2019-01-08T02:23:09.696Z,98418.69
2019-01-08T02:24:44.891Z,98417.34
2019-01-08T02:26:20.052Z,98393.87
2019-01-08T02:27:55.371Z,98381.69
2019-01-08T02:29:30.608Z,98381.11
2019-01-08T02:31:06.043Z,98364.48
2019-01-08T02:32:41.425Z,98355.78
2019-01-08T02:34:16.892Z,98349.57
2019-01-08T02:35:52.359Z,98336.75
2019-01-08T02:37:27.596Z,98333.83
2019-01-08T02:39:02.899Z,98345.61
2019-01-08T02:40:38.226Z,98319.45
2019-01-08T02:42:13.993Z,98299.73
2019-01-08T02:43:49.394Z,98295.82
2019-01-08T02:45:24.597Z,98277.02
2019-01-08T02:47:00.873Z,98279.31
2019-01-08T02:48:37.099Z,98258.78
2019-01-08T02:50:13.710Z,98266.33
2019-01-08T02:51:48.905Z,98256.23
2019-01-08T02:53:24.112Z,98250.60
2019-01-08T02:54:59.321Z,98236.88
2019-01-08T02:56:34.601Z,98227.92
2019-01-08T02:58:14.163Z,98219.02
2019-01-08T02:59:53.736Z,98199.27
2019-01-08T03:01:34.403Z,98190.36
2019-01-08T03:03:11.837Z,98179.31
2019-01-08T03:04:47.392Z,98166.14
2019-01-08T03:06:25.422Z,98163.59
2019-01-08T03:08:00.739Z,98156.04
2019-01-08T03:09:39.070Z,98141.72
2019-01-08T03:11:14.423Z,98128.57
2019-01-08T03:12:49.921Z,98118.88
2019-01-08T03:14:25.087Z,98108.99
2019-01-08T03:16:00.311Z,98100.29
2019-01-08T03:17:36.125Z,98094.09
2019-01-08T03:19:11.540Z,98077.23
2019-01-08T03:20:47.023Z,98059.25
2019-01-08T03:22:22.170Z,98039.88
2019-01-08T03:23:57.341Z,98036.19
2019-01-08T03:25:34.120Z,98024.00
2019-01-08T03:27:09.302Z,98017.97
2019-01-08T03:28:44.536Z,98001.34
2019-01-08T03:30:20.047Z,97980.45
2019-01-08T03:31:56.856Z,97987.23
2019-01-08T03:33:32.146Z,97969.62
2019-01-08T03:35:08.943Z,97957.81
2019-01-08T03:36:44.087Z,97950.09
2019-01-08T03:38:19.410Z,97937.13
2019-01-08T03:39:54.632Z,97930.36
2019-01-08T03:41:30.002Z,97924.94
2019-01-08T03:43:06.159Z,97906.94
2019-01-08T03:44:41.537Z,97896.67
2019-01-08T03:46:17.117Z,97884.86
2019-01-08T03:47:52.357Z,97864.16
2019-01-08T03:49:27.524Z,97853.90
2019-01-08T03:51:03.133Z,97843.44
2019-01-08T03:52:38.415Z,97827.59
2019-01-08T03:54:13.707Z,97827.77
2019-01-08T03:55:48.879Z,97815.19
2019-01-08T03:57:24.211Z,97816.33
2019-01-08T03:58:59.632Z,97801.84
2019-01-08T04:00:34.913Z,97795.66
2019-01-08T04:02:10.270Z,97784.05
2019-01-08T04:03:45.832Z,97783.47
2019-01-08T04:05:21.438Z,97765.88
2019-01-08T04:06:57.068Z,97758.91
2019-01-08T04:08:32.232Z,97754.06
2019-01-08T04:10:08.283Z,97744.19
2019-01-08T04:11:43.542Z,97733.36
2019-01-08T04:13:19.024Z,97738.98
2019-01-08T04:14:54.319Z,97728.90
2019-01-08T04:16:29.511Z,97725.42
2019-01-08T04:18:05.965Z,97701.83
2019-01-08T04:19:41.222Z,97696.02
2019-01-08T04:21:16.678Z,97683.86
2019-01-08T04:22:52.157Z,97680.17
2019-01-08T04:24:27.534Z,97677.09
2019-01-08T04:26:02.811Z,97663.35
2019-01-08T04:27:38.047Z,97667.21
2019-01-08T04:29:13.237Z,97651.55
2019-01-08T04:30:48.604Z,97648.64
2019-01-08T04:32:24.050Z,97637.04
2019-01-08T04:33:59.447Z,97619.82
2019-01-08T04:35:36.214Z,97615.19
2019-01-08T04:37:11.395Z,97616.34
2019-01-08T04:38:46.662Z,97600.09
2019-01-08T04:40:21.912Z,97601.07
2019-01-08T04:41:57.528Z,97595.46
2019-01-08T04:43:34.592Z,97596.45
2019-01-08T04:45:09.751Z,97545.59
2019-01-08T04:46:45.501Z,97582.14
2019-01-08T04:48:20.687Z,97558.36
2019-01-08T04:49:56.152Z,97556.03
2019-01-08T04:51:31.297Z,97547.52
2019-01-08T04:53:07.361Z,97551.77
2019-01-08T04:54:42.712Z,97541.13
2019-01-08T04:56:18.402Z,97519.48
2019-01-08T04:57:54.175Z,97522.76
2019-01-08T04:59:29.841Z,97516.57
2019-01-08T05:01:05.103Z,97521.21
2019-01-08T05:02:40.433Z,97501.87
2019-01-08T05:04:16.023Z,97500.52
2019-01-08T05:05:53.610Z,97493.75
2019-01-08T05:07:29.021Z,97473.08
2019-01-08T05:09:05.520Z,97474.03
2019-01-08T05:10:40.756Z,97476.55
2019-01-08T05:12:16.074Z,97462.07
2019-01-08T05:13:51.615Z,97461.49
2019-01-08T05:15:26.796Z,97443.70
2019-01-08T05:17:02.023Z,97436.72
2019-01-08T05:18:37.338Z,97431.89
2019-01-08T05:20:12.519Z,97435.02
2019-01-08T05:21:48.071Z,97426.89
2019-01-08T05:23:23.446Z,97420.70
2019-01-08T05:24:58.710Z,97413.16
2019-01-08T05:26:38.330Z,97416.83
2019-01-08T05:28:13.641Z,97407.94
2019-01-08T05:29:49.655Z,97404.45
2019-01-08T05:31:25.705Z,97403.88
2019-01-08T05:33:01.006Z,97395.37
2019-01-08T05:34:36.300Z,97394.22
2019-01-08T05:36:11.620Z,97404.45
2019-01-08T05:37:47.124Z,97388.03
2019-01-08T05:39:22.403Z,97385.33
2019-01-08T05:40:57.663Z,97387.06
2019-01-08T05:42:33.660Z,97372.37
2019-01-08T05:44:09.025Z,97370.23
2019-01-08T05:45:44.530Z,97359.42
2019-01-08T05:47:19.703Z,97348.59
2019-01-08T05:48:55.053Z,97349.37
2019-01-08T05:50:30.237Z,97357.69
2019-01-08T05:52:05.563Z,97336.81
2019-01-08T05:53:41.218Z,97333.69
2019-01-08T05:55:18.237Z,97348.99
2019-01-08T05:56:53.810Z,97349.57
2019-01-08T05:58:29.035Z,97319.80
2019-01-08T06:00:05.653Z,97324.05
2019-01-08T06:01:40.847Z,97307.05
2019-01-08T06:03:16.249Z,97341.42
2019-01-08T06:04:51.707Z,97320.36
2019-01-08T06:06:27.467Z,97338.17
2019-01-08T06:08:03.005Z,97323.48
2019-01-08T06:09:38.564Z,97316.10
2019-01-08T06:11:13.882Z,97317.45
2019-01-08T06:12:49.183Z,97316.48
2019-01-08T06:14:24.872Z,97295.03
2019-01-08T06:16:00.535Z,97325.00
2019-01-08T06:17:35.886Z,97315.91
2019-01-08T06:19:11.968Z,97322.88
2019-01-08T06:20:47.994Z,97320.55
2019-01-08T06:22:24.601Z,97293.33
2019-01-08T06:23:59.824Z,97319.99
2019-01-08T06:25:34.999Z,97313.45
2019-01-08T06:27:10.559Z,97316.53
2019-01-08T06:28:46.321Z,97323.30
2019-01-08T06:30:24.807Z,97326.38
2019-01-08T06:31:58.479Z,97330.64
2019-01-08T06:33:34.065Z,97331.98
2019-01-08T06:35:09.470Z,97313.05
2019-01-08T06:36:45.122Z,97317.11
2019-01-08T06:38:20.966Z,97316.92
2019-01-08T06:39:56.562Z,97312.28
2019-01-08T06:41:32.021Z,97303.97
2019-01-08T06:43:07.323Z,97305.91
2019-01-08T06:44:42.582Z,97313.62
2019-01-08T06:46:18.107Z,97307.64
2019-01-08T06:47:55.284Z,97307.45
2019-01-08T06:49:30.537Z,97324.09
2019-01-08T06:51:05.928Z,97308.63
2019-01-08T06:52:42.285Z,97319.45
2019-01-08T06:54:19.093Z,97324.46
2019-01-08T06:55:54.690Z,97323.11
2019-01-08T06:57:30.006Z,97319.83
2019-01-08T06:59:05.542Z,97302.63
2019-01-08T07:00:41.222Z,97310.94
2019-01-08T07:02:16.686Z,97311.34
2019-01-08T07:03:52.052Z,97305.55
2019-01-08T07:05:31.029Z,97302.45
2019-01-08T07:07:06.601Z,97306.31
2019-01-08T07:08:41.934Z,97305.92
2019-01-08T07:10:17.250Z,97309.03
2019-01-08T07:11:52.734Z,97298.20
2019-01-08T07:13:28.057Z,97304.20
2019-01-08T07:15:05.860Z,97305.16
2019-01-08T07:16:44.475Z,97310.37
2019-01-08T07:18:20.179Z,97305.36
2019-01-08T07:19:55.743Z,97319.84
2019-01-08T07:21:31.283Z,97304.57
2019-01-08T07:23:06.560Z,97307.48
2019-01-08T07:24:42.123Z,97327.55
2019-01-08T07:26:17.677Z,97327.35
2019-01-08T07:27:52.849Z,97339.89
2019-01-08T07:29:30.038Z,97337.38
2019-01-08T07:31:05.650Z,97329.84
2019-01-08T07:32:40.803Z,97346.24
2019-01-08T07:34:16.061Z,97336.01
2019-01-08T07:35:51.627Z,97340.06
2019-01-08T07:37:27.183Z,97347.20
2019-01-08T07:39:03.283Z,97350.45
2019-01-08T07:40:38.429Z,97319.60
2019-01-08T07:42:13.586Z,97322.11
2019-01-08T07:43:49.118Z,97327.31
2019-01-08T07:45:24.279Z,97319.98
2019-01-08T07:46:59.433Z,97318.25
2019-01-08T07:48:38.920Z,97316.11
2019-01-08T07:50:14.599Z,97302.23
2019-01-08T07:51:50.111Z,97314.02
2019-01-08T07:53:26.344Z,97330.05
2019-01-08T07:55:01.700Z,97322.50
2019-01-08T07:56:37.325Z,97322.89
2019-01-08T07:58:15.519Z,97327.34
2019-01-08T07:59:53.005Z,97328.69
2019-01-08T08:01:28.248Z,97320.98
2019-01-08T08:03:03.437Z,97296.06
2019-01-08T08:04:38.670Z,97315.38
2019-01-08T08:06:13.915Z,97322.52
2019-01-08T08:07:50.977Z,97313.44
2019-01-08T08:09:28.118Z,97317.87
2019-01-08T08:11:05.673Z,97311.88
2019-01-08T08:12:40.926Z,97314.61
2019-01-08T08:14:17.699Z,97296.84
2019-01-08T08:15:53.146Z,97309.20
2019-01-08T08:17:29.935Z,97302.04
2019-01-08T08:19:05.200Z,97307.84
2019-01-08T08:20:41.392Z,97316.73
2019-01-08T08:22:16.569Z,97304.73
2019-01-08T08:23:51.765Z,97312.46
2019-01-08T08:25:27.126Z,97296.83
2019-01-08T08:27:02.886Z,97292.02
2019-01-08T08:28:38.242Z,97306.30
2019-01-08T08:30:17.021Z,97298.78
2019-01-08T08:31:52.659Z,97295.87
2019-01-08T08:33:28.342Z,97301.08
2019-01-08T08:35:08.506Z,97287.56
2019-01-08T08:36:42.386Z,97289.11
2019-01-08T08:38:20.934Z,97283.33
2019-01-08T08:39:56.774Z,97282.75
2019-01-08T08:41:31.958Z,97279.27
2019-01-08T08:43:09.418Z,97279.09
2019-01-08T08:44:47.795Z,97283.14
2019-01-08T08:46:23.317Z,97272.14
2019-01-08T08:47:58.545Z,97266.73
2019-01-08T08:49:33.816Z,97266.55
2019-01-08T08:51:09.359Z,97278.50
2019-01-08T08:52:45.249Z,97264.20
2019-01-08T08:54:21.222Z,97253.39
2019-01-08T08:55:57.971Z,97253.98
2019-01-08T08:57:33.132Z,97262.87
2019-01-08T08:59:09.242Z,97263.45
2019-01-08T09:00:47.572Z,97257.46
2019-01-08T09:02:22.772Z,97259.78
2019-01-08T09:03:58.047Z,97254.56
2019-01-08T09:05:33.809Z,97243.17
2019-01-08T09:07:11.375Z,97251.67
2019-01-08T09:08:46.875Z,97267.13
2019-01-08T09:10:22.476Z,97257.25
2019-01-08T09:11:58.161Z,97263.06
2019-01-08T09:13:33.315Z,97241.63
2019-01-08T09:15:08.835Z,97275.42
2019-01-08T09:16:44.949Z,97265.37
2019-01-08T09:18:27.580Z,97256.87
2019-01-08T09:20:04.924Z,97252.04
2019-01-08T09:21:46.683Z,97245.12
2019-01-08T09:23:22.929Z,97247.24
2019-01-08T09:25:01.331Z,97240.07
2019-01-08T09:26:36.707Z,97245.70
2019-01-08T09:28:13.280Z,97242.99
2019-01-08T09:29:49.169Z,97240.29
2019-01-08T09:31:26.717Z,97238.94
2019-01-08T09:33:03.468Z,97246.46
2019-01-08T09:34:39.563Z,97241.63
2019-01-08T09:36:14.857Z,97252.64
2019-01-08T09:37:52.782Z,97254.95
2019-01-08T09:39:27.721Z,97250.89
2019-01-08T09:41:03.152Z,97244.32
2019-01-08T09:42:42.764Z,97257.26
2019-01-08T09:44:17.941Z,97236.80
2019-01-08T09:45:57.456Z,97250.70
2019-01-08T09:47:38.490Z,97246.64
2019-01-08T09:49:14.659Z,97252.44
2019-01-08T09:50:52.700Z,97241.43
2019-01-08T09:52:29.669Z,97251.86
2019-01-08T09:54:08.281Z,97262.09
2019-01-08T09:55:46.401Z,97253.59
2019-01-08T09:57:25.741Z,97268.07
2019-01-08T09:59:03.120Z,97255.72
2019-01-08T10:00:39.929Z,97270.97
2019-01-08T10:02:17.895Z,97257.84
2019-01-08T10:03:58.668Z,97250.52
2019-01-08T10:05:43.114Z,97245.28
2019-01-08T10:07:18.922Z,97256.70
2019-01-08T10:08:55.707Z,97249.53
2019-01-08T10:10:34.177Z,97253.78
2019-01-08T10:12:26.489Z,97251.66
2019-01-08T10:14:05.774Z,97256.10
2019-01-08T10:15:43.838Z,97247.98
2019-01-08T10:17:25.235Z,97257.28
2019-01-08T10:19:13.543Z,97246.63
2019-01-08T10:20:48.971Z,97241.06
2019-01-08T10:22:30.533Z,97243.77
2019-01-08T10:24:05.893Z,97246.63
2019-01-08T10:25:45.212Z,97239.49
2019-01-08T10:27:21.979Z,97236.59
2019-01-08T10:28:57.738Z,97231.96
2019-01-08T10:30:34.431Z,97239.49
2019-01-08T10:32:10.406Z,97241.63
2019-01-08T10:33:45.674Z,97237.38
2019-01-08T10:35:28.892Z,97226.36
2019-01-08T10:37:04.785Z,97227.91
2019-01-08T10:38:43.808Z,97234.09
2019-01-08T10:40:23.751Z,97229.84
2019-01-08T10:42:00.511Z,97231.39
2019-01-08T10:43:38.300Z,97220.38
2019-01-08T10:45:21.423Z,97230.62
2019-01-08T10:46:58.161Z,97232.35
2019-01-08T10:48:33.988Z,97224.25
2019-01-08T10:50:13.314Z,97231.17
2019-01-08T10:51:50.310Z,97227.31
2019-01-08T10:53:32.243Z,97227.89
2019-01-08T10:55:07.778Z,97216.89
2019-01-08T10:56:42.980Z,97222.10
2019-01-08T10:58:18.228Z,97214.18
2019-01-08T10:59:53.692Z,97216.66
2019-01-08T11:01:40.449Z,97206.62
2019-01-08T11:03:12.318Z,97211.06
2019-01-08T11:04:48.477Z,97204.49
2019-01-08T11:06:26.948Z,97210.87
2019-01-08T11:08:12.051Z,97215.15
2019-01-08T11:09:47.462Z,97213.60
2019-01-08T11:11:25.438Z,97208.00
2019-01-08T11:13:01.707Z,97210.52
2019-01-08T11:14:37.088Z,97211.67
2019-01-08T11:16:14.690Z,97213.02
2019-01-08T11:17:49.969Z,97221.91
2019-01-08T11:19:29.569Z,97213.02
2019-01-08T11:21:07.774Z,97213.02
2019-01-08T11:22:45.212Z,97214.95
2019-01-08T11:24:21.132Z,97211.86
2019-01-08T11:25:56.836Z,97223.45
2019-01-08T11:27:37.382Z,97214.73
2019-01-08T11:29:15.970Z,97184.59
2019-01-08T11:30:57.842Z,97205.45
2019-01-08T11:32:47.462Z,97203.33
2019-01-08T11:34:26.340Z,97199.86
2019-01-08T11:36:04.596Z,97207.78
2019-01-08T11:37:44.052Z,97191.94
2019-01-08T11:39:25.218Z,97197.34
2019-01-08T11:41:03.259Z,97190.39
2019-01-08T11:42:44.410Z,97199.66
2019-01-08T11:44:19.711Z,97181.70
2019-01-08T11:46:01.374Z,97171.66
2019-01-08T11:47:45.515Z,97180.34
2019-01-08T11:49:26.893Z,97183.25
2019-01-08T11:51:05.215Z,97198.31
2019-01-08T11:52:40.549Z,97198.89
2019-01-08T11:54:15.804Z,97204.91
2019-01-08T11:55:52.515Z,97206.67
2019-01-08T11:57:29.988Z,97174.61
2019-01-08T11:59:07.080Z,97197.81
2019-01-08T12:00:47.553Z,97194.53
2019-01-08T12:02:30.759Z,97194.33
2019-01-08T12:04:11.972Z,97180.21
2019-01-08T12:06:01.189Z,97198.38
2019-01-08T12:07:41.740Z,97182.12
2019-01-08T12:09:17.966Z,97184.05
2019-01-08T12:10:58.617Z,97179.99
2019-01-08T12:12:38.490Z,97179.22
2019-01-08T12:14:19.290Z,97173.01
2019-01-08T12:15:59.029Z,97176.29
2019-01-08T12:17:34.599Z,97175.70
2019-01-08T12:19:13.157Z,97199.66
2019-01-08T12:20:48.902Z,97163.73
2019-01-08T12:22:40.608Z,97183.44
2019-01-08T12:24:11.944Z,97170.27
2019-01-08T12:25:54.569Z,97186.88
2019-01-08T12:27:40.749Z,97173.54
2019-01-08T12:29:25.697Z,97183.00
2019-01-08T12:31:09.752Z,97189.97
2019-01-08T12:32:53.623Z,97190.16
2019-01-08T12:34:44.578Z,97170.30
2019-01-08T12:36:22.625Z,97195.22
2019-01-08T12:38:00.106Z,97185.95
2019-01-08T12:41:35.303Z,97196.22
2019-01-08T12:43:19.785Z,97195.47
2019-01-08T12:44:54.620Z,97179.05
2019-01-08T12:46:32.184Z,97190.45
2019-01-08T12:48:08.250Z,97190.06
2019-01-08T12:49:47.171Z,97190.64
2019-01-08T12:51:25.403Z,97190.42
2019-01-08T12:53:01.245Z,97198.15
2019-01-08T12:54:39.699Z,97203.36
2019-01-08T12:56:16.512Z,97201.05
2019-01-08T12:57:56.533Z,97185.78
2019-01-08T12:59:33.358Z,97214.73
2019-01-08T13:01:09.607Z,97215.53
2019-01-08T13:02:45.312Z,97224.97
2019-01-08T13:04:23.401Z,97211.64
2019-01-08T13:06:01.987Z,97215.89
2019-01-08T13:07:39.255Z,97233.86
2019-01-08T13:09:14.835Z,97215.48
2019-01-08T13:10:53.310Z,97217.41
2019-01-08T13:12:29.572Z,97209.68
2019-01-08T13:14:05.447Z,97211.22
2019-01-08T13:15:49.743Z,97213.34
2019-01-08T13:17:29.368Z,97213.92
2019-01-08T13:19:05.307Z,97199.83
2019-01-08T13:20:41.296Z,97215.28
2019-01-08T13:22:20.564Z,97233.64
2019-01-08T13:24:05.788Z,97227.27
2019-01-08T13:25:46.464Z,97215.28
2019-01-08T13:27:30.855Z,97213.16
2019-01-08T13:29:12.939Z,97212.15
2019-01-08T13:30:49.423Z,97234.37
2019-01-08T13:32:38.799Z,97238.23
2019-01-08T13:34:30.512Z,97239.20
2019-01-08T13:36:08.189Z,97234.17
2019-01-08T13:37:51.795Z,97253.28
2019-01-08T13:39:36.238Z,97255.41
2019-01-08T13:41:27.992Z,97259.63
2019-01-08T13:43:03.577Z,97268.31
2019-01-08T13:44:56.499Z,97292.88
2019-01-08T13:46:33.107Z,97274.89
2019-01-08T13:48:14.674Z,97282.81
2019-01-08T13:50:05.603Z,97285.09
2019-01-08T13:51:47.061Z,97297.47
2019-01-08T13:53:22.030Z,97299.98
2019-01-08T13:55:09.027Z,97299.56
2019-01-08T13:56:47.909Z,97312.75
2019-01-08T13:58:28.058Z,97307.30
2019-01-08T14:00:13.334Z,97309.27
2019-01-08T14:01:54.429Z,97305.05
2019-01-08T14:03:40.590Z,97283.79
2019-01-08T14:05:18.188Z,97315.50
2019-01-08T14:06:57.880Z,97324.58
2019-01-08T14:08:46.453Z,97342.78
2019-01-08T14:10:36.191Z,97335.44
2019-01-08T14:12:16.260Z,97357.67
2019-01-08T14:14:08.001Z,97340.08
2019-01-08T14:15:44.211Z,97331.41
2019-01-08T14:17:29.953Z,97320.38
2019-01-08T14:19:07.830Z,97345.70
2019-01-08T14:20:44.169Z,97339.70
2019-01-08T14:22:19.819Z,97343.95
2019-01-08T14:23:58.134Z,97355.38
2019-01-08T14:25:35.930Z,97356.54
2019-01-08T14:27:15.419Z,97348.80
2019-01-08T14:28:55.341Z,97380.89
2019-01-08T14:30:38.581Z,97383.38
2019-01-08T14:32:18.964Z,97370.45
2019-01-08T14:33:54.758Z,97379.70
2019-01-08T14:35:31.612Z,97397.09
2019-01-08T14:37:07.562Z,97396.32
2019-01-08T14:38:44.737Z,97410.03
2019-01-08T14:40:19.997Z,97414.86
2019-01-08T14:41:55.412Z,97418.55
2019-01-08T14:43:32.133Z,97419.10
2019-01-08T14:45:10.727Z,97431.27
2019-01-08T14:46:49.048Z,97425.68
2019-01-08T14:48:26.082Z,97424.73
2019-01-08T14:50:28.961Z,97426.47
2019-01-08T14:52:13.441Z,97432.83
2019-01-08T14:54:02.485Z,97421.83
2019-01-08T14:55:45.347Z,97444.24
2019-01-08T14:58:16.432Z,97425.13
2019-01-08T15:00:15.451Z,97433.05
2019-01-08T15:01:53.303Z,97420.86
2019-01-08T15:03:29.701Z,97422.98
2019-01-08T15:05:07.607Z,97431.28
2019-01-08T15:07:01.741Z,97423.56
2019-01-08T15:08:42.097Z,97419.12
2019-01-08T15:10:20.198Z,97427.22
2019-01-08T15:12:02.283Z,97436.30
2019-01-08T15:13:51.667Z,97430.89
2019-01-08T15:15:29.290Z,97427.23
2019-01-08T15:17:09.102Z,97420.66
2019-01-08T15:18:45.894Z,97429.14
2019-01-08T15:20:22.030Z,97442.28
2019-01-08T15:22:00.946Z,97473.94
2019-01-08T15:23:39.243Z,97482.03
2019-01-08T15:25:18.509Z,97493.03
2019-01-08T15:26:54.859Z,97508.05
2019-01-08T15:28:30.851Z,97506.51
2019-01-08T15:30:13.259Z,97519.42
2019-01-08T15:31:54.852Z,97504.53
2019-01-08T15:33:30.517Z,97510.52
2019-01-08T15:35:15.389Z,97529.63
2019-01-08T15:36:53.585Z,97543.55
2019-01-08T15:38:54.753Z,97544.89
2019-01-08T15:40:39.299Z,97543.34
2019-01-08T15:42:17.144Z,97535.78
2019-01-08T15:43:56.532Z,97547.00
2019-01-08T15:45:33.173Z,97550.48
2019-01-08T15:47:15.619Z,97545.45
2019-01-08T15:48:57.248Z,97554.70
2019-01-08T15:50:37.326Z,97552.75
2019-01-08T15:52:28.730Z,97553.13
2019-01-08T15:54:06.403Z,97558.53
2019-01-08T15:55:44.905Z,97553.87
2019-01-08T15:57:26.075Z,97564.88
2019-01-08T15:59:15.625Z,97566.03
2019-01-08T16:00:53.665Z,97556.57
2019-01-08T16:02:30.200Z,97565.45
2019-01-08T16:04:11.460Z,97574.34
2019-01-08T16:05:50.885Z,97573.94
2019-01-08T16:07:30.916Z,97561.00
2019-01-08T16:09:16.224Z,97573.94
2019-01-08T16:10:58.798Z,97561.17
2019-01-08T16:12:55.271Z,97575.05
2019-01-08T16:14:37.714Z,97572.55
2019-01-08T16:16:25.112Z,97578.53
2019-01-08T16:18:09.451Z,97581.40
2019-01-08T16:19:52.919Z,97579.07
2019-01-08T16:21:34.446Z,97578.09
2019-01-08T16:23:10.411Z,97571.17
2019-01-08T16:24:46.554Z,97579.84
2019-01-08T16:26:21.956Z,97582.75
2019-01-08T16:27:59.667Z,97571.17
2019-01-08T16:29:39.070Z,97584.10
2019-01-08T16:31:29.565Z,97595.69
2019-01-08T16:33:05.701Z,97568.84
2019-01-08T16:34:43.499Z,97571.34
2019-01-08T16:36:19.983Z,97572.89
2019-01-08T16:37:58.880Z,97578.87
2019-01-08T16:39:40.371Z,97582.34
2019-01-08T16:41:21.225Z,97579.64
2019-01-08T16:42:59.216Z,97579.45
2019-01-08T16:44:38.049Z,97581.77
2019-01-08T16:46:15.529Z,97573.73
2019-01-08T16:47:54.984Z,97566.80
2019-01-08T16:49:31.256Z,97570.48
2019-01-08T16:51:08.470Z,97581.12
2019-01-08T16:52:45.157Z,97555.66
2019-01-08T16:54:21.341Z,97564.33
2019-01-08T16:55:59.189Z,97564.73
2019-01-08T16:57:43.010Z,97568.98
2019-01-08T16:59:25.359Z,97564.16
2019-01-08T17:01:01.526Z,97578.08
2019-01-08T17:02:42.360Z,97557.98
2019-01-08T17:04:22.015Z,97565.52
2019-01-08T17:06:01.186Z,97567.81
2019-01-08T17:07:39.001Z,97556.05
2019-01-08T17:09:15.133Z,97554.67
2019-01-08T17:10:50.708Z,97565.45
2019-01-08T17:12:27.703Z,97587.47
2019-01-08T17:14:05.094Z,97580.89
2019-01-08T17:15:42.213Z,97579.91
2019-01-08T17:17:23.796Z,97602.88
2019-01-08T17:19:02.833Z,97614.86
2019-01-08T17:20:40.281Z,97627.02
2019-01-08T17:22:29.397Z,97625.40
2019-01-08T17:24:06.372Z,97634.41
2019-01-08T17:25:47.740Z,97640.31
2019-01-08T17:27:20.219Z,97662.09
2019-01-08T17:29:07.157Z,97635.84
2019-01-08T17:30:45.209Z,97647.53
2019-01-08T17:32:30.246Z,97624.95
2019-01-08T17:34:18.587Z,97629.12
2019-01-08T17:36:00.966Z,97639.70
2019-01-08T17:37:38.699Z,97633.84
2019-01-08T17:39:25.149Z,97625.59
2019-01-08T17:41:18.458Z,97632.34
2019-01-08T17:42:55.397Z,97619.27
2019-01-08T17:44:42.553Z,97619.05
2019-01-08T17:46:19.980Z,97630.13
2019-01-08T17:47:57.885Z,97637.72
2019-01-08T17:49:41.169Z,97619.88
2019-01-08T17:51:17.190Z,97635.12
2019-01-08T17:52:52.853Z,97629.94
2019-01-08T17:54:33.640Z,97619.15
2019-01-08T17:56:09.785Z,97633.50
2019-01-08T17:57:48.084Z,97633.88
2019-01-08T17:59:25.938Z,97623.87
2019-01-08T18:01:09.753Z,97622.93
2019-01-08T18:02:53.312Z,97620.84
2019-01-08T18:04:40.146Z,97621.05
2019-01-08T18:06:16.063Z,97627.22
2019-01-08T18:07:54.653Z,97619.34
2019-01-08T18:09:30.926Z,97615.70
2019-01-08T18:11:14.434Z,97623.11
2019-01-08T18:13:00.022Z,97628.71
2019-01-08T18:14:42.655Z,97616.25
2019-01-08T18:16:19.695Z,97614.94
2019-01-08T18:17:55.321Z,97643.70
2019-01-08T18:19:33.923Z,97676.20
2019-01-08T18:21:12.675Z,97685.86
2019-01-08T18:22:57.046Z,97662.13
2019-01-08T18:24:42.045Z,97675.05
2019-01-08T18:27:56.940Z,97900.78
2019-01-08T18:32:24.743Z,97681.52
2019-01-08T18:37:48.948Z,97693.63
2019-01-08T18:39:31.371Z,97694.61
2019-01-08T18:46:02.345Z,97720.32
2019-01-08T18:47:44.633Z,97737.87
2019-01-08T18:49:52.123Z,97736.48
2019-01-08T18:51:49.514Z,97759.19
2019-01-08T18:53:46.466Z,97773.36
2019-01-08T18:59:07.713Z,97783.02
2019-01-08T19:13:40.623Z,97795.65
2019-01-08T19:15:27.826Z,97821.70
2019-01-08T19:17:06.206Z,97820.84
2019-01-08T19:19:00.430Z,97805.69
2019-01-08T19:20:36.625Z,97828.30
2019-01-08T19:22:21.145Z,97813.50
2019-01-08T19:24:04.186Z,97846.05
2019-01-08T19:25:40.555Z,97848.88
2019-01-08T19:27:18.519Z,97873.50
2019-01-08T19:28:54.533Z,97889.02
2019-01-08T19:30:49.245Z,97881.48
2019-01-08T19:32:33.328Z,97872.61
2019-01-08T19:36:25.557Z,97868.00
2019-01-08T19:38:23.263Z,97869.98
2019-01-08T19:40:07.034Z,97873.45
2019-01-08T19:41:43.273Z,97862.67
2019-01-08T19:43:34.009Z,97876.19
2019-01-08T19:45:15.248Z,97871.18
2019-01-08T19:46:52.157Z,97882.54